Time,TemperatureF,DewpointF,PressureIn,WindDirection,WindDirectionDegrees,WindSpeedMPH,WindSpeedGustMPH,Humidity,HourlyPrecipIn,Conditions,Clouds,dailyrainin,SoftwareType,DateUTC
2013-03-25 00:04:00,31.3,28.1,29.85,South,173,0.0,0.0,88,0.00,,,0.00,WeatherDisplay:10.36,2013-03-25 05:04:00,
2013-03-25 00:10:00,31.3,28.1,29.85,NNE,29,0.0,0.0,88,0.00,,,0.00,WeatherDisplay:10.36,2013-03-25 05:10:00,
2013-03-25 00:15:00,31.3,28.1,29.85,South,173,0.0,0.0,88,0.00,,,0.00,WeatherDisplay:10.36,2013-03-25 05:15:00,
2013-03-25 00:20:00,31.3,28.1,29.85,SSW,192,0.0,0.0,88,0.00,,,0.00,WeatherDisplay:10.36,2013-03-25 05:20:00,
2013-03-25 00:25:00,31.3,28.1,29.85,SW,220,0.0,0.0,88,0.00,,,0.00,WeatherDisplay:10.36,2013-03-25 05:25:00,
2013-03-25 00:30:00,31.3,28.1,29.85,SSW,198,0.0,0.0,88,0.00,,,0.00,WeatherDisplay:10.36,2013-03-25 05:30:00,
2013-03-25 00:35:00,31.3,28.1,29.85,SSW,197,0.0,0.0,88,0.00,,,0.00,WeatherDisplay:10.36,2013-03-25 05:35:00,
2013-03-25 00:41:00,31.1,28.0,29.85,SSE,147,0.0,0.0,88,0.00,,,0.00,WeatherDisplay:10.36,2013-03-25 05:41:00,
2013-03-25 00:46:00,31.1,28.0,29.85,ESE,117,0.0,0.0,88,0.00,,,0.00,WeatherDisplay:10.36,2013-03-25 05:46:00,
2013-03-25 00:52:00,30.9,27.8,29.85,NNE,30,0.0,0.0,88,0.00,,,0.00,WeatherDisplay:10.36,2013-03-25 05:52:00,
2013-03-25 00:57:00,30.9,27.8,29.85,ESE,105,0.0,0.0,88,0.00,,,0.00,WeatherDisplay:10.36,2013-03-25 05:57:00,
2013-03-25 01:02:00,30.9,27.8,29.85,NNE,30,0.0,0.0,88,0.00,,,0.00,WeatherDisplay:10.36,2013-03-25 06:02:00,
2013-03-25 01:07:00,30.9,27.8,29.85,ENE,60,0.0,0.0,88,0.00,,,0.00,WeatherDisplay:10.36,2013-03-25 06:07:00,
2013-03-25 01:12:00,30.9,27.8,29.85,SSW,196,0.0,0.0,88,0.00,,,0.00,WeatherDisplay:10.36,2013-03-25 06:12:00,
2013-03-25 01:17:00,30.9,27.8,29.88,NNE,30,0.0,0.0,88,0.00,,,0.00,WeatherDisplay:10.36,2013-03-25 06:17:00,
2013-03-25 01:22:00,30.9,27.8,29.88,SW,221,0.0,0.0,88,0.00,,,0.00,WeatherDisplay:10.36,2013-03-25 06:22:00,
2013-03-25 01:27:00,30.9,27.8,29.88,SSW,204,0.0,0.0,88,0.00,,,0.00,WeatherDisplay:10.36,2013-03-25 06:27:00,
2013-03-25 01:32:00,30.9,27.8,29.88,NNE,30,0.0,0.0,88,0.00,,,0.00,WeatherDisplay:10.36,2013-03-25 06:32:00,
2013-03-25 01:37:00,30.9,27.8,29.88,SE,141,0.0,0.0,88,0.00,,,0.00,WeatherDisplay:10.36,2013-03-25 06:37:00,
2013-03-25 01:43:00,30.9,27.8,29.88,NE,53,0.0,0.0,88,0.00,,,0.00,WeatherDisplay:10.36,2013-03-25 06:43:00,
2013-03-25 01:48:00,30.7,27.6,29.88,NNE,32,0.0,0.0,88,0.00,,,0.00,WeatherDisplay:10.36,2013-03-25 06:48:00,
2013-03-25 01:53:00,30.7,27.6,29.88,NNE,31,0.0,0.0,88,0.00,,,0.00,WeatherDisplay:10.36,2013-03-25 06:53:00,
2013-03-25 01:58:00,30.7,27.6,29.88,NE,41,0.0,0.0,88,0.00,,,0.00,WeatherDisplay:10.36,2013-03-25 06:58:00,
2013-03-25 02:03:00,30.7,27.6,29.88,NNE,31,0.0,0.0,88,0.00,,,0.00,WeatherDisplay:10.36,2013-03-25 07:03:00,
2013-03-25 02:08:00,30.7,27.6,29.88,NNE,31,0.0,0.0,88,0.00,,,0.00,WeatherDisplay:10.36,2013-03-25 07:08:00,
2013-03-25 02:14:00,30.7,27.6,29.88,ENE,76,0.0,0.0,88,0.00,,,0.00,WeatherDisplay:10.36,2013-03-25 07:14:00,
2013-03-25 02:19:00,30.7,27.6,29.88,NNE,30,0.0,0.0,88,0.00,,,0.00,WeatherDisplay:10.36,2013-03-25 07:19:00,
2013-03-25 02:24:00,30.9,27.8,29.88,NNE,30,0.0,0.0,88,0.00,,,0.00,WeatherDisplay:10.36,2013-03-25 07:24:00,
2013-03-25 02:29:00,30.7,27.6,29.88,NNE,31,0.0,0.0,88,0.00,,,0.00,WeatherDisplay:10.36,2013-03-25 07:29:00,
2013-03-25 02:34:00,30.7,27.6,29.88,SSE,168,0.0,0.0,88,0.00,,,0.00,WeatherDisplay:10.36,2013-03-25 07:34:00,
2013-03-25 02:39:00,30.9,27.8,29.88,NNE,29,0.0,0.0,88,0.00,,,0.00,WeatherDisplay:10.36,2013-03-25 07:39:00,
2013-03-25 02:44:00,30.9,27.8,29.88,NNE,30,0.0,0.0,88,0.00,,,0.00,WeatherDisplay:10.36,2013-03-25 07:44:00,
2013-03-25 02:49:00,30.9,27.8,29.88,ENE,60,0.0,0.0,88,0.00,,,0.00,WeatherDisplay:10.36,2013-03-25 07:49:00,
2013-03-25 02:54:00,30.9,27.8,29.88,SW,216,0.0,0.0,88,0.00,,,0.00,WeatherDisplay:10.36,2013-03-25 07:54:00,
2013-03-25 02:59:00,30.9,27.8,29.88,SSW,203,0.0,0.0,88,0.00,,,0.00,WeatherDisplay:10.36,2013-03-25 07:59:00,
2013-03-25 03:04:00,30.7,27.6,29.88,SSW,212,0.0,0.0,88,0.00,,,0.00,WeatherDisplay:10.36,2013-03-25 08:04:00,
2013-03-25 03:09:00,30.7,27.6,29.88,South,174,0.0,0.0,88,0.00,,,0.00,WeatherDisplay:10.36,2013-03-25 08:09:00,
2013-03-25 03:14:00,30.7,27.6,29.88,NNE,32,0.0,0.0,88,0.00,,,0.00,WeatherDisplay:10.36,2013-03-25 08:14:00,
2013-03-25 03:19:00,30.7,27.6,29.85,NNE,32,0.0,0.0,88,0.00,,,0.00,WeatherDisplay:10.36,2013-03-25 08:19:00,
2013-03-25 03:24:00,30.7,27.6,29.85,SW,219,0.0,0.0,88,0.00,,,0.00,WeatherDisplay:10.36,2013-03-25 08:24:00,
2013-03-25 03:29:00,30.7,27.6,29.85,SW,234,0.0,0.0,88,0.00,,,0.00,WeatherDisplay:10.36,2013-03-25 08:29:00,
2013-03-25 03:34:00,30.6,27.4,29.88,NNE,30,0.0,0.0,88,0.00,,,0.00,WeatherDisplay:10.36,2013-03-25 08:34:00,
2013-03-25 03:39:00,30.6,27.4,29.88,SW,221,0.0,0.0,88,0.00,,,0.00,WeatherDisplay:10.36,2013-03-25 08:39:00,
2013-03-25 03:44:00,30.6,27.4,29.88,SE,137,0.0,0.0,88,0.00,,,0.00,WeatherDisplay:10.36,2013-03-25 08:44:00,
2013-03-25 03:49:00,30.4,27.3,29.88,NNE,32,0.0,0.0,88,0.00,,,0.00,WeatherDisplay:10.36,2013-03-25 08:49:00,
2013-03-25 03:54:00,30.4,27.3,29.88,SSW,193,0.0,0.0,88,0.00,,,0.00,WeatherDisplay:10.36,2013-03-25 08:54:00,
2013-03-25 03:59:00,30.4,27.3,29.88,NNE,31,0.0,0.0,88,0.00,,,0.00,WeatherDisplay:10.36,2013-03-25 08:59:00,
2013-03-25 04:04:00,30.4,27.3,29.88,SE,129,0.0,0.0,88,0.00,,,0.00,WeatherDisplay:10.36,2013-03-25 09:04:00,
2013-03-25 04:09:00,30.2,27.1,29.88,NNE,31,0.0,0.0,88,0.00,,,0.00,WeatherDisplay:10.36,2013-03-25 09:09:00,
2013-03-25 04:14:00,30.2,27.1,29.88,SSW,207,0.0,0.0,88,0.00,,,0.00,WeatherDisplay:10.36,2013-03-25 09:14:00,
2013-03-25 04:20:00,30.2,27.1,29.88,NE,39,0.0,0.0,88,0.00,,,0.00,WeatherDisplay:10.36,2013-03-25 09:20:00,
2013-03-25 04:25:00,30.2,27.1,29.88,NNE,30,0.0,0.0,88,0.00,,,0.00,WeatherDisplay:10.36,2013-03-25 09:25:00,
2013-03-25 04:30:00,30.2,27.1,29.88,NNE,31,0.0,0.0,88,0.00,,,0.00,WeatherDisplay:10.36,2013-03-25 09:30:00,
2013-03-25 04:35:00,30.0,26.9,29.88,East,99,0.0,0.0,88,0.00,,,0.00,WeatherDisplay:10.36,2013-03-25 09:35:00,
2013-03-25 04:40:00,30.0,26.9,29.88,NNE,30,0.0,0.0,88,0.00,,,0.00,WeatherDisplay:10.36,2013-03-25 09:40:00,
2013-03-25 04:45:00,30.0,26.9,29.88,NNE,30,0.0,0.0,88,0.00,,,0.00,WeatherDisplay:10.36,2013-03-25 09:45:00,
2013-03-25 04:50:00,30.0,26.9,29.88,ESE,120,0.0,0.0,88,0.00,,,0.00,WeatherDisplay:10.36,2013-03-25 09:50:00,
2013-03-25 04:56:00,30.0,26.9,29.88,NNE,30,0.0,0.0,88,0.00,,,0.00,WeatherDisplay:10.36,2013-03-25 09:56:00,
2013-03-25 05:01:00,30.0,26.9,29.88,South,177,0.0,0.0,88,0.00,,,0.00,WeatherDisplay:10.36,2013-03-25 10:01:00,
2013-03-25 05:06:00,30.0,26.9,29.88,NNE,31,0.0,0.0,88,0.00,,,0.00,WeatherDisplay:10.36,2013-03-25 10:06:00,
2013-03-25 05:12:00,30.2,27.1,29.88,NNE,31,0.0,0.0,88,0.00,,,0.00,WeatherDisplay:10.36,2013-03-25 10:12:00,
2013-03-25 05:17:00,30.6,27.4,29.88,SSE,156,0.0,0.0,88,0.00,,,0.00,WeatherDisplay:10.36,2013-03-25 10:17:00,
2013-03-25 05:22:00,30.7,27.9,29.88,East,89,0.0,0.0,89,0.00,,,0.00,WeatherDisplay:10.36,2013-03-25 10:22:00,
2013-03-25 05:28:00,30.7,27.6,29.88,SW,228,0.0,0.0,88,0.00,,,0.00,WeatherDisplay:10.36,2013-03-25 10:28:00,
2013-03-25 05:33:00,30.9,27.8,29.88,SW,222,0.0,0.0,88,0.00,,,0.00,WeatherDisplay:10.36,2013-03-25 10:33:00,
2013-03-25 05:38:00,30.9,27.8,29.88,ENE,63,0.0,0.0,88,0.00,,,0.00,WeatherDisplay:10.36,2013-03-25 10:38:00,
2013-03-25 05:43:00,30.9,27.8,29.88,East,94,0.0,0.0,88,0.00,,,0.00,WeatherDisplay:10.36,2013-03-25 10:43:00,
2013-03-25 05:48:00,30.7,27.6,29.88,NE,38,0.0,0.0,88,0.00,,,0.00,WeatherDisplay:10.36,2013-03-25 10:48:00,
2013-03-25 05:53:00,30.7,27.6,29.88,SW,229,0.0,0.0,88,0.00,,,0.00,WeatherDisplay:10.36,2013-03-25 10:53:00,
2013-03-25 05:59:00,30.6,27.4,29.88,SW,222,0.0,0.0,88,0.00,,,0.00,WeatherDisplay:10.36,2013-03-25 10:59:00,
2013-03-25 06:04:00,30.6,27.4,29.88,NNE,33,0.0,0.0,88,0.00,,,0.00,WeatherDisplay:10.36,2013-03-25 11:04:00,
2013-03-25 06:09:00,30.4,27.3,29.88,SSE,164,0.0,0.0,88,0.00,,,0.00,WeatherDisplay:10.36,2013-03-25 11:09:00,
2013-03-25 06:14:00,30.2,27.1,29.88,NNE,32,0.0,0.0,88,0.00,,,0.00,WeatherDisplay:10.36,2013-03-25 11:14:00,
2013-03-25 06:19:00,30.2,27.1,29.88,ENE,75,0.0,0.0,88,0.00,,,0.00,WeatherDisplay:10.36,2013-03-25 11:19:00,
2013-03-25 06:24:00,30.0,26.9,29.88,NNE,32,0.0,0.0,88,0.00,,,0.00,WeatherDisplay:10.36,2013-03-25 11:24:00,
2013-03-25 06:29:00,30.0,26.9,29.88,SE,132,0.0,0.0,88,0.00,,,0.00,WeatherDisplay:10.36,2013-03-25 11:29:00,
2013-03-25 06:34:00,30.0,26.9,29.91,ESE,114,0.0,0.0,88,0.00,,,0.00,WeatherDisplay:10.36,2013-03-25 11:34:00,
2013-03-25 06:39:00,30.0,26.9,29.91,SE,145,0.0,0.0,88,0.00,,,0.00,WeatherDisplay:10.36,2013-03-25 11:39:00,
2013-03-25 06:44:00,30.0,26.9,29.91,SSE,159,0.0,0.0,88,0.00,,,0.00,WeatherDisplay:10.36,2013-03-25 11:44:00,
2013-03-25 06:49:00,30.0,26.9,29.91,NNE,31,0.0,0.0,88,0.00,,,0.00,WeatherDisplay:10.36,2013-03-25 11:49:00,
2013-03-25 06:54:00,30.0,26.9,29.91,SW,231,0.0,0.0,88,0.00,,,0.00,WeatherDisplay:10.36,2013-03-25 11:54:00,
2013-03-25 06:59:00,30.0,26.9,29.91,South,172,0.0,0.0,88,0.00,,,0.00,WeatherDisplay:10.36,2013-03-25 11:59:00,
2013-03-25 07:04:00,30.2,27.1,29.91,SSE,166,0.0,0.0,88,0.00,,,0.00,WeatherDisplay:10.36,2013-03-25 12:04:00,
2013-03-25 07:09:00,30.2,27.1,29.91,SE,131,0.0,0.0,88,0.00,,,0.00,WeatherDisplay:10.36,2013-03-25 12:09:00,
2013-03-25 07:14:00,30.2,27.1,29.91,SSW,200,0.0,0.0,88,0.00,,,0.00,WeatherDisplay:10.36,2013-03-25 12:14:00,
2013-03-25 07:19:00,30.2,27.1,29.91,ENE,71,0.0,0.0,88,0.00,,,0.00,WeatherDisplay:10.36,2013-03-25 12:19:00,
2013-03-25 07:24:00,30.2,27.1,29.91,SSE,159,0.0,0.0,88,0.00,,,0.00,WeatherDisplay:10.36,2013-03-25 12:24:00,
2013-03-25 07:29:00,30.2,27.1,29.91,NE,49,0.0,0.0,88,0.00,,,0.00,WeatherDisplay:10.36,2013-03-25 12:29:00,
2013-03-25 07:34:00,30.4,27.3,29.91,NNE,30,0.0,0.0,88,0.00,,,0.00,WeatherDisplay:10.36,2013-03-25 12:34:00,
2013-03-25 07:39:00,30.4,27.3,29.91,South,175,0.0,0.0,88,0.00,,,0.00,WeatherDisplay:10.36,2013-03-25 12:39:00,
2013-03-25 07:45:00,30.4,27.3,29.91,SW,215,0.0,0.0,88,0.00,,,0.00,WeatherDisplay:10.36,2013-03-25 12:45:00,
2013-03-25 07:50:00,30.6,27.4,29.91,East,85,0.0,0.0,88,0.00,,,0.00,WeatherDisplay:10.36,2013-03-25 12:50:00,
2013-03-25 07:55:00,30.7,27.6,29.91,SE,133,0.0,0.0,88,0.00,,,0.00,WeatherDisplay:10.36,2013-03-25 12:55:00,
2013-03-25 08:00:00,30.9,27.8,29.91,SSW,192,0.0,0.0,88,0.00,,,0.00,WeatherDisplay:10.36,2013-03-25 13:00:00,
2013-03-25 08:05:00,31.1,28.0,29.94,NNE,28,0.0,0.0,88,0.00,,,0.00,WeatherDisplay:10.36,2013-03-25 13:05:00,
2013-03-25 08:10:00,31.3,28.1,29.94,NNE,31,0.0,0.0,88,0.00,,,0.00,WeatherDisplay:10.36,2013-03-25 13:10:00,
2013-03-25 08:15:00,31.5,28.3,29.94,NE,53,0.0,0.0,88,0.00,,,0.00,WeatherDisplay:10.36,2013-03-25 13:15:00,
2013-03-25 08:20:00,31.6,28.5,29.94,ENE,64,0.0,0.0,88,0.00,,,0.00,WeatherDisplay:10.36,2013-03-25 13:20:00,
2013-03-25 08:25:00,31.6,28.5,29.94,NNE,29,0.0,0.0,88,0.00,,,0.00,WeatherDisplay:10.36,2013-03-25 13:25:00,
2013-03-25 08:30:00,31.8,28.7,29.94,NNE,29,0.0,0.0,88,0.00,,,0.00,WeatherDisplay:10.36,2013-03-25 13:30:00,
2013-03-25 08:35:00,32.2,29.0,29.94,South,177,0.0,0.0,88,0.00,,,0.00,WeatherDisplay:10.36,2013-03-25 13:35:00,
2013-03-25 08:40:00,32.4,29.2,29.94,NNE,30,0.0,0.0,88,0.00,,,0.00,WeatherDisplay:10.36,2013-03-25 13:40:00,
2013-03-25 08:46:00,32.5,29.4,29.94,East,91,0.0,0.0,88,0.00,,,0.00,WeatherDisplay:10.36,2013-03-25 13:46:00,
2013-03-25 08:51:00,32.7,29.6,29.94,NNE,30,0.0,0.0,88,0.00,,,0.00,WeatherDisplay:10.36,2013-03-25 13:51:00,
2013-03-25 08:56:00,32.9,29.7,29.94,NNE,31,0.0,0.0,88,0.00,,,0.00,WeatherDisplay:10.36,2013-03-25 13:56:00,
2013-03-25 09:01:00,33.1,29.9,29.94,NNE,32,0.0,0.0,88,0.00,,,0.00,WeatherDisplay:10.36,2013-03-25 14:01:00,
2013-03-25 09:07:00,33.3,30.1,29.97,East,95,0.0,0.0,88,0.00,,,0.00,WeatherDisplay:10.36,2013-03-25 14:07:00,
2013-03-25 09:12:00,33.3,30.1,29.97,NE,48,0.0,0.0,88,0.00,,,0.00,WeatherDisplay:10.36,2013-03-25 14:12:00,
2013-03-25 09:18:00,33.6,30.4,29.97,NNW,338,0.0,0.0,88,0.00,,,0.00,WeatherDisplay:10.36,2013-03-25 14:18:00,
2013-03-25 09:23:00,33.8,30.6,29.97,ESE,103,0.0,0.0,88,0.00,,,0.00,WeatherDisplay:10.36,2013-03-25 14:23:00,
2013-03-25 09:28:00,34.0,30.8,29.97,SSW,199,0.0,0.0,88,0.00,,,0.00,WeatherDisplay:10.36,2013-03-25 14:28:00,
2013-03-25 09:33:00,34.2,31.0,29.97,SSE,160,0.0,0.0,88,0.00,,,0.00,WeatherDisplay:10.36,2013-03-25 14:33:00,
2013-03-25 09:38:00,34.3,31.2,29.97,West,259,0.0,0.0,88,0.00,,,0.00,WeatherDisplay:10.36,2013-03-25 14:38:00,
2013-03-25 09:43:00,34.5,31.0,29.97,NNE,29,0.0,0.0,87,0.00,,,0.00,WeatherDisplay:10.36,2013-03-25 14:43:00,
2013-03-25 09:48:00,34.7,31.2,29.97,NNE,29,0.0,0.0,87,0.00,,,0.00,WeatherDisplay:10.36,2013-03-25 14:48:00,
2013-03-25 09:53:00,34.9,31.4,29.97,NNE,30,0.0,0.0,87,0.00,,,0.00,WeatherDisplay:10.36,2013-03-25 14:53:00,
2013-03-25 09:58:00,35.1,31.6,29.97,ENE,71,0.0,0.0,87,0.00,,,0.00,WeatherDisplay:10.36,2013-03-25 14:58:00,
2013-03-25 10:03:00,35.2,31.5,29.97,NNE,33,0.0,0.0,86,0.00,,,0.00,WeatherDisplay:10.36,2013-03-25 15:03:00,
2013-03-25 10:08:00,35.2,31.5,29.97,NNE,32,0.0,0.0,86,0.00,,,0.00,WeatherDisplay:10.36,2013-03-25 15:08:00,
2013-03-25 10:14:00,35.4,31.6,29.97,ENE,69,0.0,0.0,86,0.00,,,0.00,WeatherDisplay:10.36,2013-03-25 15:14:00,
2013-03-25 10:19:00,35.6,31.8,29.97,NNE,27,0.0,0.0,86,0.00,,,0.00,WeatherDisplay:10.36,2013-03-25 15:19:00,
2013-03-25 10:24:00,35.8,31.7,29.97,NNE,30,0.0,0.0,85,0.00,,,0.00,WeatherDisplay:10.36,2013-03-25 15:24:00,
2013-03-25 10:29:00,36.1,32.1,29.97,NNE,26,0.0,0.0,85,0.00,,,0.00,WeatherDisplay:10.36,2013-03-25 15:29:00,
2013-03-25 10:34:00,36.1,32.1,29.97,NNE,32,0.0,0.0,85,0.00,,,0.00,WeatherDisplay:10.36,2013-03-25 15:34:00,
2013-03-25 10:39:00,36.1,31.8,29.97,NNE,26,0.0,0.0,84,0.00,,,0.00,WeatherDisplay:10.36,2013-03-25 15:39:00,
2013-03-25 10:44:00,36.1,31.8,29.97,NNE,26,0.0,0.0,84,0.00,,,0.00,WeatherDisplay:10.36,2013-03-25 15:44:00,
2013-03-25 10:49:00,36.0,31.3,30.00,NNE,26,0.0,0.0,83,0.00,,,0.00,WeatherDisplay:10.36,2013-03-25 15:49:00,
2013-03-25 10:54:00,36.1,31.5,30.00,NNE,26,0.0,0.0,83,0.00,,,0.00,WeatherDisplay:10.36,2013-03-25 15:54:00,
2013-03-25 10:59:00,36.1,31.2,30.00,NNE,26,0.0,0.0,82,0.00,,,0.00,WeatherDisplay:10.36,2013-03-25 15:59:00,
2013-03-25 11:04:00,36.1,30.9,30.00,NNE,25,0.0,0.0,81,0.00,,,0.00,WeatherDisplay:10.36,2013-03-25 16:04:00,
2013-03-25 11:09:00,36.0,30.4,30.00,NNE,29,0.0,0.0,80,0.00,,,0.00,WeatherDisplay:10.36,2013-03-25 16:09:00,
2013-03-25 11:14:00,35.8,29.9,30.00,East,83,0.0,0.0,79,0.00,,,0.00,WeatherDisplay:10.36,2013-03-25 16:14:00,
2013-03-25 11:19:00,35.8,29.9,30.00,ENE,67,0.0,0.0,79,0.00,,,0.00,WeatherDisplay:10.36,2013-03-25 16:19:00,
2013-03-25 11:24:00,36.0,30.1,30.00,NE,51,0.0,0.0,79,0.00,,,0.00,WeatherDisplay:10.36,2013-03-25 16:24:00,
2013-03-25 11:29:00,35.8,29.6,30.00,NE,49,0.0,0.0,78,0.00,,,0.00,WeatherDisplay:10.36,2013-03-25 16:29:00,
2013-03-25 11:35:00,35.8,29.3,30.00,ENE,70,3.1,0.0,77,0.00,,,0.00,WeatherDisplay:10.36,2013-03-25 16:35:00,
2013-03-25 11:40:00,35.8,29.0,30.00,NNE,28,0.0,0.0,76,0.00,,,0.00,WeatherDisplay:10.36,2013-03-25 16:40:00,
2013-03-25 11:45:00,36.0,29.1,30.00,NE,43,0.0,0.0,76,0.00,,,0.00,WeatherDisplay:10.36,2013-03-25 16:45:00,
2013-03-25 11:51:00,35.8,28.6,30.00,NNE,26,0.0,0.0,75,0.00,,,0.00,WeatherDisplay:10.36,2013-03-25 16:51:00,
2013-03-25 11:57:00,35.8,28.3,30.00,NNE,27,0.0,0.0,74,0.00,,,0.00,WeatherDisplay:10.36,2013-03-25 16:57:00,
2013-03-25 12:02:00,36.1,28.6,30.00,NNE,26,0.0,0.0,74,0.00,,,0.00,WeatherDisplay:10.36,2013-03-25 17:02:00,
2013-03-25 12:07:00,36.3,28.2,30.00,NE,38,4.9,4.9,72,0.00,,,0.00,WeatherDisplay:10.36,2013-03-25 17:07:00,
2013-03-25 12:12:00,36.3,27.1,30.00,NNE,31,4.6,4.6,69,0.00,,,0.00,WeatherDisplay:10.36,2013-03-25 17:12:00,
2013-03-25 12:17:00,36.3,26.8,30.00,ENE,60,6.7,0.0,68,0.00,,,0.00,WeatherDisplay:10.36,2013-03-25 17:17:00,
2013-03-25 12:22:00,37.0,26.4,30.00,NE,45,9.2,9.2,65,0.00,,,0.00,WeatherDisplay:10.36,2013-03-25 17:22:00,
2013-03-25 12:28:00,38.1,27.4,30.00,North,351,3.5,0.0,65,0.00,,,0.00,WeatherDisplay:10.36,2013-03-25 17:28:00,
2013-03-25 12:33:00,39.2,28.4,30.76,North,351,0.0,0.0,65,0.00,,,0.00,WeatherDisplay:10.36,2013-03-25 17:33:00,
2013-03-25 12:38:00,40.1,29.3,30.76,NNE,26,0.0,0.0,65,0.00,,,0.00,WeatherDisplay:10.36,2013-03-25 17:38:00,
2013-03-25 12:43:00,40.6,29.4,30.76,NE,53,4.9,4.9,64,0.00,,,0.00,WeatherDisplay:10.36,2013-03-25 17:43:00,
2013-03-25 12:48:00,41.0,29.4,30.03,NNE,26,6.9,0.0,63,0.00,,,0.00,WeatherDisplay:10.36,2013-03-25 17:48:00,
2013-03-25 12:53:00,41.0,28.2,30.03,ENE,75,3.6,0.0,60,0.00,,,0.00,WeatherDisplay:10.36,2013-03-25 17:53:00,
2013-03-25 12:58:00,41.0,27.8,30.03,East,95,5.8,5.8,59,0.00,,,0.00,WeatherDisplay:10.36,2013-03-25 17:58:00,
2013-03-25 13:03:00,40.8,27.2,30.03,East,82,6.9,6.9,58,0.00,,,0.00,WeatherDisplay:10.36,2013-03-25 18:03:00,
2013-03-25 13:08:00,40.5,26.0,30.03,NE,55,5.8,5.8,56,0.00,,,0.00,WeatherDisplay:10.36,2013-03-25 18:08:00,
2013-03-25 13:13:00,40.5,25.5,30.03,ENE,70,4.9,4.9,55,0.00,,,0.00,WeatherDisplay:10.36,2013-03-25 18:13:00,
2013-03-25 13:18:00,40.3,24.9,30.03,East,95,7.4,7.4,54,0.00,,,0.00,WeatherDisplay:10.36,2013-03-25 18:18:00,
2013-03-25 13:23:00,39.7,24.0,30.03,East,101,6.3,6.3,53,0.00,,,0.00,WeatherDisplay:10.36,2013-03-25 18:23:00,
2013-03-25 13:28:00,39.0,23.3,30.03,SE,129,7.4,7.4,53,0.00,,,0.00,WeatherDisplay:10.36,2013-03-25 18:28:00,
2013-03-25 13:33:00,38.8,23.2,30.00,NE,46,6.9,6.9,53,0.00,,,0.00,WeatherDisplay:10.36,2013-03-25 18:33:00,
2013-03-25 13:38:00,39.0,23.3,30.00,ENE,57,3.6,0.0,53,0.00,,,0.00,WeatherDisplay:10.36,2013-03-25 18:38:00,
2013-03-25 13:44:00,39.0,22.9,30.00,NE,54,5.8,5.8,52,0.00,,,0.00,WeatherDisplay:10.36,2013-03-25 18:44:00,
2013-03-25 13:49:00,38.8,22.7,30.00,East,88,6.3,6.3,52,0.00,,,0.00,WeatherDisplay:10.36,2013-03-25 18:49:00,
2013-03-25 13:54:00,38.8,22.2,30.00,ENE,60,5.8,5.8,51,0.00,,,0.00,WeatherDisplay:10.36,2013-03-25 18:54:00,
2013-03-25 13:59:00,38.8,22.2,30.00,NE,53,8.1,8.1,51,0.00,,,0.00,WeatherDisplay:10.36,2013-03-25 18:59:00,
2013-03-25 14:04:00,39.0,22.4,30.03,ENE,78,4.6,0.0,51,0.00,,,0.00,WeatherDisplay:10.36,2013-03-25 19:04:00,
2013-03-25 14:09:00,39.6,22.4,30.03,SE,140,6.9,6.9,50,0.00,,,0.00,WeatherDisplay:10.36,2013-03-25 19:09:00,
2013-03-25 14:14:00,40.5,23.3,30.03,ENE,67,5.8,5.8,50,0.00,,,0.00,WeatherDisplay:10.36,2013-03-25 19:14:00,
2013-03-25 14:19:00,41.2,23.4,30.03,ENE,65,6.9,6.9,49,0.00,,,0.00,WeatherDisplay:10.36,2013-03-25 19:19:00,
2013-03-25 14:24:00,41.7,23.5,30.03,East,80,6.9,6.9,48,0.00,,,0.00,WeatherDisplay:10.36,2013-03-25 19:24:00,
2013-03-25 14:29:00,42.1,22.2,30.03,East,81,9.2,9.2,45,0.00,,,0.00,WeatherDisplay:10.36,2013-03-25 19:29:00,
2013-03-25 14:35:00,42.4,22.0,30.03,ENE,62,6.7,6.7,44,0.00,,,0.00,WeatherDisplay:10.36,2013-03-25 19:35:00,
2013-03-25 14:40:00,42.4,22.0,30.03,NE,48,5.4,5.4,44,0.00,,,0.00,WeatherDisplay:10.36,2013-03-25 19:40:00,
2013-03-25 14:45:00,42.3,20.8,30.03,ESE,102,4.9,4.9,42,0.00,,,0.00,WeatherDisplay:10.36,2013-03-25 19:45:00,
2013-03-25 14:50:00,42.1,21.2,30.03,NE,52,2.7,4.5,43,0.00,,,0.00,WeatherDisplay:10.36,2013-03-25 19:50:00,
2013-03-25 14:55:00,42.1,21.2,30.03,ESE,123,9.2,9.2,43,0.00,,,0.00,WeatherDisplay:10.36,2013-03-25 19:55:00,
2013-03-25 15:00:00,41.7,21.4,30.03,SE,126,6.9,6.9,44,0.00,,,0.00,WeatherDisplay:10.36,2013-03-25 20:00:00,
2013-03-25 15:05:00,41.5,20.1,30.03,NE,56,3.6,3.6,42,0.00,,,0.00,WeatherDisplay:10.36,2013-03-25 20:05:00,
2013-03-25 15:10:00,41.7,20.8,30.03,ESE,103,5.4,5.4,43,0.00,,,0.00,WeatherDisplay:10.36,2013-03-25 20:10:00,
2013-03-25 15:15:00,41.9,21.0,30.03,SSE,168,6.7,6.7,43,0.00,,,0.00,WeatherDisplay:10.36,2013-03-25 20:15:00,
2013-03-25 15:20:00,41.7,20.3,30.03,NE,55,3.6,5.4,42,0.00,,,0.00,WeatherDisplay:10.36,2013-03-25 20:20:00,
2013-03-25 15:25:00,41.5,20.1,30.03,ENE,65,5.8,5.8,42,0.00,,,0.00,WeatherDisplay:10.36,2013-03-25 20:25:00,
2013-03-25 15:30:00,41.5,20.1,30.03,East,95,3.6,4.0,42,0.00,,,0.00,WeatherDisplay:10.36,2013-03-25 20:30:00,
2013-03-25 15:35:00,41.7,20.3,30.03,ENE,62,4.9,4.9,42,0.00,,,0.00,WeatherDisplay:10.36,2013-03-25 20:35:00,
2013-03-25 15:40:00,42.1,20.0,30.03,NE,50,2.7,0.0,41,0.00,,,0.00,WeatherDisplay:10.36,2013-03-25 20:40:00,
2013-03-25 15:45:00,42.3,20.8,30.03,SE,133,5.4,5.4,42,0.00,,,0.00,WeatherDisplay:10.36,2013-03-25 20:45:00,
2013-03-25 15:50:00,42.4,20.4,30.03,SSE,168,5.4,5.4,41,0.00,,,0.00,WeatherDisplay:10.36,2013-03-25 20:50:00,
2013-03-25 15:55:00,42.4,20.4,30.03,NE,54,5.8,5.8,41,0.00,,,0.00,WeatherDisplay:10.36,2013-03-25 20:55:00,
2013-03-25 16:00:00,42.3,20.2,30.03,SW,217,3.6,0.0,41,0.00,,,0.00,WeatherDisplay:10.36,2013-03-25 21:00:00,
2013-03-25 16:05:00,42.1,20.0,30.06,SE,129,7.8,7.8,41,0.00,,,0.00,WeatherDisplay:10.36,2013-03-25 21:05:00,
2013-03-25 16:10:00,42.3,20.2,30.06,South,184,5.4,5.4,41,0.00,,,0.00,WeatherDisplay:10.36,2013-03-25 21:10:00,
2013-03-25 16:15:00,42.1,19.5,30.06,NE,42,5.8,5.8,40,0.00,,,0.00,WeatherDisplay:10.36,2013-03-25 21:15:00,
2013-03-25 16:20:00,41.9,19.9,30.06,ESE,111,7.4,7.4,41,0.00,,,0.00,WeatherDisplay:10.36,2013-03-25 21:20:00,
2013-03-25 16:25:00,41.5,19.6,30.06,ENE,73,6.9,6.9,41,0.00,,,0.00,WeatherDisplay:10.36,2013-03-25 21:25:00,
2013-03-25 16:30:00,41.5,19.6,30.06,East,93,10.5,10.5,41,0.00,,,0.00,WeatherDisplay:10.36,2013-03-25 21:30:00,
2013-03-25 16:35:00,41.5,19.6,30.06,ESE,103,7.8,7.8,41,0.00,,,0.00,WeatherDisplay:10.36,2013-03-25 21:35:00,
2013-03-25 16:40:00,41.4,19.4,30.06,ESE,111,6.9,6.9,41,0.00,,,0.00,WeatherDisplay:10.36,2013-03-25 21:40:00,
2013-03-25 16:45:00,41.2,19.2,30.06,ENE,63,6.9,6.9,41,0.00,,,0.00,WeatherDisplay:10.36,2013-03-25 21:45:00,
2013-03-25 16:50:00,41.2,19.2,30.06,East,92,5.8,5.8,41,0.00,,,0.00,WeatherDisplay:10.36,2013-03-25 21:50:00,
2013-03-25 16:55:00,41.0,19.1,30.06,ENE,61,4.0,4.0,41,0.00,,,0.00,WeatherDisplay:10.36,2013-03-25 21:55:00,
2013-03-25 17:00:00,41.0,19.1,30.06,SE,135,6.7,6.7,41,0.00,,,0.00,WeatherDisplay:10.36,2013-03-25 22:00:00,
2013-03-25 17:05:00,40.6,18.7,30.06,ESE,116,6.3,6.3,41,0.00,,,0.00,WeatherDisplay:10.36,2013-03-25 22:05:00,
2013-03-25 17:10:00,40.5,18.6,30.06,ESE,107,6.7,6.7,41,0.00,,,0.00,WeatherDisplay:10.36,2013-03-25 22:10:00,
2013-03-25 17:15:00,40.1,18.3,30.06,East,85,0.0,4.0,41,0.00,,,0.00,WeatherDisplay:10.36,2013-03-25 22:15:00,
2013-03-25 17:20:00,39.7,18.5,30.06,ESE,117,8.3,8.3,42,0.00,,,0.00,WeatherDisplay:10.36,2013-03-25 22:20:00,
2013-03-25 17:25:00,39.4,18.2,30.06,ENE,62,0.0,0.0,42,0.00,,,0.00,WeatherDisplay:10.36,2013-03-25 22:25:00,
2013-03-25 17:30:00,39.2,18.0,30.06,ESE,117,7.4,7.4,42,0.00,,,0.00,WeatherDisplay:10.36,2013-03-25 22:30:00,
2013-03-25 17:35:00,38.8,17.7,30.06,NE,56,0.0,3.6,42,0.00,,,0.00,WeatherDisplay:10.36,2013-03-25 22:35:00,
2013-03-25 17:40:00,38.7,17.5,30.06,SE,134,5.8,5.8,42,0.00,,,0.00,WeatherDisplay:10.36,2013-03-25 22:40:00,
2013-03-25 17:45:00,38.7,18.1,30.06,ENE,75,0.0,4.9,43,0.00,,,0.00,WeatherDisplay:10.36,2013-03-25 22:45:00,
2013-03-25 17:50:00,38.1,17.6,30.08,East,95,7.8,7.8,43,0.00,,,0.00,WeatherDisplay:10.36,2013-03-25 22:50:00,
2013-03-25 17:55:00,37.9,17.4,30.08,ENE,65,5.8,5.8,43,0.00,,,0.00,WeatherDisplay:10.36,2013-03-25 22:55:00,
2013-03-25 18:00:00,37.8,17.8,30.08,East,84,4.5,4.9,44,0.00,,,0.00,WeatherDisplay:10.36,2013-03-25 23:00:00,
2013-03-25 18:05:00,37.4,17.4,30.08,NE,49,5.4,5.8,44,0.00,,,0.00,WeatherDisplay:10.36,2013-03-25 23:05:00,
2013-03-25 18:10:00,37.2,17.3,30.08,SE,127,2.7,2.7,44,0.00,,,0.00,WeatherDisplay:10.36,2013-03-25 23:10:00,
2013-03-25 18:15:00,37.0,17.6,30.08,ESE,115,0.0,0.0,45,0.00,,,0.00,WeatherDisplay:10.36,2013-03-25 23:15:00,
2013-03-25 18:20:00,36.9,17.5,30.08,East,80,3.6,3.6,45,0.00,,,0.00,WeatherDisplay:10.36,2013-03-25 23:20:00,
2013-03-25 18:25:00,36.5,17.7,30.08,East,81,5.8,5.8,46,0.00,,,0.00,WeatherDisplay:10.36,2013-03-25 23:25:00,
2013-03-25 18:30:00,36.1,17.3,30.08,NE,48,4.0,4.0,46,0.00,,,0.00,WeatherDisplay:10.36,2013-03-25 23:30:00,
2013-03-25 18:35:00,36.0,17.7,30.08,NE,52,0.0,0.0,47,0.00,,,0.00,WeatherDisplay:10.36,2013-03-25 23:35:00,
2013-03-25 18:40:00,35.8,17.5,30.08,East,88,5.4,5.4,47,0.00,,,0.00,WeatherDisplay:10.36,2013-03-25 23:40:00,
2013-03-25 18:45:00,35.6,17.8,30.08,North,351,0.0,2.7,48,0.00,,,0.00,WeatherDisplay:10.36,2013-03-25 23:45:00,
2013-03-25 18:50:00,35.4,17.7,30.11,East,92,0.0,0.0,48,0.00,,,0.00,WeatherDisplay:10.36,2013-03-25 23:50:00,
2013-03-25 18:55:00,35.2,18.0,30.11,East,86,0.0,0.0,49,0.00,,,0.00,WeatherDisplay:10.36,2013-03-25 23:55:00,
2013-03-25 19:00:00,35.1,17.8,30.11,ENE,70,2.7,0.0,49,0.00,,,0.00,WeatherDisplay:10.36,2013-03-26 00:00:00,
2013-03-25 19:05:00,34.9,18.1,30.11,NE,52,0.0,0.0,50,0.00,,,0.00,WeatherDisplay:10.36,2013-03-26 00:05:00,
2013-03-25 19:11:00,34.7,17.9,30.11,NE,39,0.0,0.0,50,0.00,,,0.00,WeatherDisplay:10.36,2013-03-26 00:11:00,
2013-03-25 19:16:00,34.5,18.2,30.11,ESE,115,3.6,0.0,51,0.00,,,0.00,WeatherDisplay:10.36,2013-03-26 00:16:00,
2013-03-25 19:22:00,34.3,18.1,30.11,ESE,113,4.6,4.6,51,0.00,,,0.00,WeatherDisplay:10.36,2013-03-26 00:22:00,
2013-03-25 19:27:00,34.3,18.5,30.11,ENE,70,0.0,0.0,52,0.00,,,0.00,WeatherDisplay:10.36,2013-03-26 00:27:00,
2013-03-25 19:33:00,34.2,18.3,30.11,East,88,0.0,0.0,52,0.00,,,0.00,WeatherDisplay:10.36,2013-03-26 00:33:00,
2013-03-25 19:38:00,34.0,18.2,30.11,NE,45,0.0,0.0,52,0.00,,,0.00,WeatherDisplay:10.36,2013-03-26 00:38:00,
2013-03-25 19:43:00,33.8,18.5,30.11,NE,48,0.0,0.0,53,0.00,,,0.00,WeatherDisplay:10.36,2013-03-26 00:43:00,
2013-03-25 19:48:00,33.6,18.3,30.11,ENE,78,0.0,0.0,53,0.00,,,0.00,WeatherDisplay:10.36,2013-03-26 00:48:00,
2013-03-25 19:53:00,33.4,18.1,30.11,East,84,0.0,0.0,53,0.00,,,0.00,WeatherDisplay:10.36,2013-03-26 00:53:00,
2013-03-25 19:58:00,33.3,18.0,30.11,NE,55,0.0,0.0,53,0.00,,,0.00,WeatherDisplay:10.36,2013-03-26 00:58:00,
2013-03-25 20:03:00,33.3,18.4,30.11,ENE,57,0.0,0.0,54,0.00,,,0.00,WeatherDisplay:10.36,2013-03-26 01:03:00,
2013-03-25 20:08:00,33.1,18.2,30.11,NE,56,0.0,0.0,54,0.00,,,0.00,WeatherDisplay:10.36,2013-03-26 01:08:00,
2013-03-25 20:13:00,32.9,18.1,30.11,NE,56,0.0,0.0,54,0.00,,,0.00,WeatherDisplay:10.36,2013-03-26 01:13:00,
2013-03-25 20:18:00,32.7,18.3,30.11,NE,55,0.0,0.0,55,0.00,,,0.00,WeatherDisplay:10.36,2013-03-26 01:18:00,
2013-03-25 20:24:00,32.7,18.3,30.11,ENE,65,0.0,0.0,55,0.00,,,0.00,WeatherDisplay:10.36,2013-03-26 01:24:00,
2013-03-25 20:29:00,32.5,18.1,30.11,ENE,64,0.0,0.0,55,0.00,,,0.00,WeatherDisplay:10.36,2013-03-26 01:29:00,
2013-03-25 20:35:00,32.4,18.4,30.14,NE,53,0.0,0.0,56,0.00,,,0.00,WeatherDisplay:10.36,2013-03-26 01:35:00,
2013-03-25 20:40:00,32.4,18.4,30.14,NE,55,0.0,0.0,56,0.00,,,0.00,WeatherDisplay:10.36,2013-03-26 01:40:00,
2013-03-25 20:45:00,32.2,18.2,30.14,ENE,59,0.0,0.0,56,0.00,,,0.00,WeatherDisplay:10.36,2013-03-26 01:45:00,
2013-03-25 20:50:00,32.2,18.6,30.14,NE,53,0.0,0.0,57,0.00,,,0.00,WeatherDisplay:10.36,2013-03-26 01:50:00,
2013-03-25 20:55:00,32.2,18.6,30.14,NE,55,0.0,0.0,57,0.00,,,0.00,WeatherDisplay:10.36,2013-03-26 01:55:00,
2013-03-25 21:00:00,32.2,18.6,30.14,ENE,60,0.0,0.0,57,0.00,,,0.00,WeatherDisplay:10.36,2013-03-26 02:00:00,
2013-03-25 21:05:00,32.2,19.0,30.14,ENE,59,0.0,0.0,58,0.00,,,0.00,WeatherDisplay:10.36,2013-03-26 02:05:00,
2013-03-25 21:10:00,32.2,19.0,30.14,NE,53,0.0,0.0,58,0.00,,,0.00,WeatherDisplay:10.36,2013-03-26 02:10:00,
2013-03-25 21:15:00,32.4,19.6,30.14,ENE,67,0.0,0.0,59,0.00,,,0.00,WeatherDisplay:10.36,2013-03-26 02:15:00,
2013-03-25 21:20:00,32.4,19.6,30.14,East,89,0.0,0.0,59,0.00,,,0.00,WeatherDisplay:10.36,2013-03-26 02:20:00,
2013-03-25 21:25:00,32.4,19.6,30.14,East,89,0.0,0.0,59,0.00,,,0.00,WeatherDisplay:10.36,2013-03-26 02:25:00,
2013-03-25 21:31:00,32.5,20.2,30.14,East,86,0.0,0.0,60,0.00,,,0.00,WeatherDisplay:10.36,2013-03-26 02:31:00,
2013-03-25 21:37:00,32.5,20.2,30.14,East,87,0.0,0.0,60,0.00,,,0.00,WeatherDisplay:10.36,2013-03-26 02:37:00,
2013-03-25 21:42:00,32.5,20.2,30.14,East,94,0.0,0.0,60,0.00,,,0.00,WeatherDisplay:10.36,2013-03-26 02:42:00,
2013-03-25 21:48:00,32.5,20.6,30.14,East,95,0.0,0.0,61,0.00,,,0.00,WeatherDisplay:10.36,2013-03-26 02:48:00,
2013-03-25 21:54:00,32.5,20.6,30.14,East,97,0.0,0.0,61,0.00,,,0.00,WeatherDisplay:10.36,2013-03-26 02:54:00,
2013-03-25 21:59:00,32.5,20.6,30.14,East,79,0.0,0.0,61,0.00,,,0.00,WeatherDisplay:10.36,2013-03-26 02:59:00,
2013-03-25 22:04:00,32.5,21.0,30.17,SE,124,3.5,0.0,62,0.00,,,0.00,WeatherDisplay:10.36,2013-03-26 03:04:00,
2013-03-25 22:10:00,32.5,21.0,30.17,SW,224,3.5,0.0,62,0.00,,,0.00,WeatherDisplay:10.36,2013-03-26 03:10:00,
2013-03-25 22:15:00,32.5,21.0,30.17,ESE,116,3.5,0.0,62,0.00,,,0.00,WeatherDisplay:10.36,2013-03-26 03:15:00,
2013-03-25 22:20:00,32.5,21.0,30.14,ENE,61,3.5,0.0,62,0.00,,,0.00,WeatherDisplay:10.36,2013-03-26 03:20:00,
2013-03-25 22:25:00,32.7,21.1,30.14,ESE,106,0.0,0.0,62,0.00,,,0.00,WeatherDisplay:10.36,2013-03-26 03:25:00,
2013-03-25 22:30:00,32.7,21.5,30.14,ESE,103,0.0,0.0,63,0.00,,,0.00,WeatherDisplay:10.36,2013-03-26 03:30:00,
2013-03-25 22:35:00,32.7,21.5,30.14,East,84,3.5,0.0,63,0.00,,,0.00,WeatherDisplay:10.36,2013-03-26 03:35:00,
2013-03-25 22:41:00,32.7,21.5,30.14,ESE,112,2.7,0.0,63,0.00,,,0.00,WeatherDisplay:10.36,2013-03-26 03:41:00,
2013-03-25 22:46:00,32.7,21.5,30.14,ENE,58,2.7,0.0,63,0.00,,,0.00,WeatherDisplay:10.36,2013-03-26 03:46:00,
2013-03-25 22:52:00,32.7,21.5,30.14,ENE,74,3.6,0.0,63,0.00,,,0.00,WeatherDisplay:10.36,2013-03-26 03:52:00,
2013-03-25 22:57:00,32.7,21.9,30.14,SSE,156,4.6,4.6,64,0.00,,,0.00,WeatherDisplay:10.36,2013-03-26 03:57:00,
2013-03-25 23:00:00,32.7,21.9,30.14,SSE,162,3.5,0.0,64,0.00,,,0.00,WeatherDisplay:10.36,2013-03-26 04:00:00,
2013-03-25 23:05:00,32.7,21.9,30.17,SE,134,3.1,3.6,64,0.00,,,0.00,WeatherDisplay:10.36,2013-03-26 04:05:00,
2013-03-25 23:06:00,32.7,21.9,30.17,SE,142,3.5,0.0,64,0.00,,,0.00,WeatherDisplay:10.36,2013-03-26 04:06:00,
2013-03-25 23:10:00,32.7,21.9,30.17,ESE,103,0.0,0.0,64,0.00,,,0.00,WeatherDisplay:10.36,2013-03-26 04:10:00,
2013-03-25 23:15:00,32.7,21.9,30.17,ESE,103,0.0,0.0,64,0.00,,,0.00,WeatherDisplay:10.36,2013-03-26 04:15:00,
2013-03-25 23:20:00,32.7,21.9,30.17,East,84,0.0,3.6,64,0.00,,,0.00,WeatherDisplay:10.36,2013-03-26 04:20:00,
2013-03-25 23:25:00,32.7,21.9,30.17,East,89,2.7,0.0,64,0.00,,,0.00,WeatherDisplay:10.36,2013-03-26 04:25:00,
2013-03-25 23:27:00,32.7,21.9,30.17,ESE,116,4.6,4.6,64,0.00,,,0.00,WeatherDisplay:10.36,2013-03-26 04:27:00,
2013-03-25 23:32:00,32.7,21.9,30.17,ENE,58,4.6,0.0,64,0.00,,,0.00,WeatherDisplay:10.36,2013-03-26 04:32:00,
2013-03-25 23:37:00,32.7,21.9,30.17,NE,52,5.4,5.4,64,0.00,,,0.00,WeatherDisplay:10.36,2013-03-26 04:37:00,
2013-03-25 23:42:00,32.7,21.9,30.17,NE,47,2.7,0.0,64,0.00,,,0.00,WeatherDisplay:10.36,2013-03-26 04:42:00,
2013-03-25 23:47:00,32.7,21.9,30.17,ESE,106,3.6,3.6,64,0.00,,,0.00,WeatherDisplay:10.36,2013-03-26 04:47:00,
2013-03-25 23:52:00,32.7,21.9,30.17,ESE,103,2.7,0.0,64,0.00,,,0.00,WeatherDisplay:10.36,2013-03-26 04:52:00,
2013-03-25 23:57:00,32.7,21.9,30.17,ENE,76,3.5,0.0,64,0.00,,,0.00,WeatherDisplay:10.36,2013-03-26 04:57:00,